Time;durP1;ratioP1;P1;durP2;ratioP2;P2;SDS_P1;SDS_P2;PMS_P1;PMS_P2;Temp;Humidity;BMP_temperature;BMP_pressure;BME280_temperature;BME280_humidity;BME280_pressure;Samples;Min_cycle;Max_cycle;Signal;HPM_P1;HPM_P2
2021/03/31 00:02:05;;;;;;;;;;;19.40;99.90;;;;;;4932492;29;19970;-78
2021/03/31 00:04:32;;;;;;;;;;;19.50;99.90;;;;;;4916606;29;20432;-79
2021/03/31 00:07:01;;;;;;;;;;;19.60;99.90;;;;;;4933063;29;19919;-80
2021/03/31 00:09:28;;;;;;;;;;;19.70;99.90;;;;;;4932823;29;19915;-79
2021/03/31 00:11:54;;;;;;;;;;;19.70;99.90;;;;;;4933757;29;20251;-80
2021/03/31 00:14:21;;;;;;;;;;;19.80;99.90;;;;;;4933580;29;19933;-79
2021/03/31 00:16:48;;;;;;;;;;;19.80;99.90;;;;;;4933661;29;19919;-80
2021/03/31 00:19:14;;;;;;;;;;;19.80;99.90;;;;;;4935765;29;20006;-80
2021/03/31 00:21:41;;;;;;;;;;;20.00;99.90;;;;;;4931093;29;20293;-79
2021/03/31 00:24:08;;;;;;;;;;;20.00;99.90;;;;;;4931132;29;20337;-79
2021/03/31 00:26:35;;;;;;;;;;;20.00;99.90;;;;;;4932811;29;19914;-81
2021/03/31 00:29:02;;;;;;;;;;;20.10;99.90;;;;;;4914069;29;20333;-79
2021/03/31 00:31:30;;;;;;;;;;;20.20;99.90;;;;;;4956415;29;19914;-79
2021/03/31 00:33:57;;;;;;;;;;;20.40;99.90;;;;;;4949217;29;19929;-79
2021/03/31 00:36:23;;;;;;;;;;;20.40;99.90;;;;;;4935732;29;20029;-79
2021/03/31 00:38:50;;;;;;;;;;;20.30;99.90;;;;;;4936254;29;19962;-79
2021/03/31 00:41:17;;;;;;;;;;;20.40;99.90;;;;;;4924290;29;19914;-79
2021/03/31 00:43:44;;;;;;;;;;;20.40;99.90;;;;;;4937722;29;19918;-78
2021/03/31 00:46:10;;;;;;;;;;;20.40;99.90;;;;;;4937381;29;20349;-78
2021/03/31 00:48:37;;;;;;;;;;;20.50;99.90;;;;;;4935560;29;19926;-77
2021/03/31 00:51:04;;;;;;;;;;;20.60;99.90;;;;;;4936588;29;19922;-77
2021/03/31 00:53:32;;;;;;;;;;;20.70;99.90;;;;;;4931748;29;19941;-77
2021/03/31 00:55:59;;;;;;;;;;;20.90;99.90;;;;;;4935542;29;20369;-78
2021/03/31 00:58:26;;;;;;;;;;;20.80;99.90;;;;;;4935934;29;19914;-78
2021/03/31 01:00:53;;;;;;;;;;;20.60;99.90;;;;;;4928612;29;19915;-78
2021/03/31 01:03:19;;;;;;;;;;;20.80;99.90;;;;;;4937024;29;19914;-76
2021/03/31 01:05:46;;;;;;;;;;;20.80;99.90;;;;;;4937838;29;20301;-76
2021/03/31 01:08:13;;;;;;;;;;;20.90;99.90;;;;;;4938221;29;19911;-76
2021/03/31 01:10:42;;;;;;;;;;;21.00;99.90;;;;;;4936481;29;20277;-77
2021/03/31 01:13:17;;;;;;;;;;;20.90;99.90;;;;;;4936873;29;19966;-76
2021/03/31 01:15:49;;;;;;;;;;;20.90;99.90;;;;;;4923865;29;19924;-76
2021/03/31 01:18:16;;;;;;;;;;;21.20;99.90;;;;;;4936169;29;20009;-76
2021/03/31 01:20:57;;;;;;;;;;;21.20;99.90;;;;;;4936454;29;20262;-77
2021/03/31 01:23:43;;;;;;;;;;;21.20;99.90;;;;;;4934446;29;20013;-76
2021/03/31 01:26:14;;;;;;;;;;;21.30;99.90;;;;;;4923925;29;19915;-76
2021/03/31 01:28:41;;;;;;;;;;;21.60;99.90;;;;;;4937115;29;19915;-77
2021/03/31 01:31:26;;;;;;;;;;;21.60;99.90;;;;;;4930825;29;20005;-76
2021/03/31 01:34:04;;;;;;;;;;;21.60;99.90;;;;;;4936666;29;19922;-76
2021/03/31 01:36:32;;;;;;;;;;;21.70;99.90;;;;;;4928328;29;19923;-79
2021/03/31 01:39:00;;;;;;;;;;;21.70;99.90;;;;;;4935406;29;19982;-79
2021/03/31 01:41:28;;;;;;;;;;;21.60;99.90;;;;;;4939383;29;19918;-78
2021/03/31 01:43:57;;;;;;;;;;;21.30;99.90;;;;;;4936978;29;19958;-79
2021/03/31 01:46:30;;;;;;;;;;;21.20;99.90;;;;;;4936995;29;19918;-80
2021/03/31 01:48:58;;;;;;;;;;;21.20;99.90;;;;;;4936309;29;20439;-79
2021/03/31 01:51:25;;;;;;;;;;;21.40;99.90;;;;;;4936743;29;20392;-79
2021/03/31 01:53:51;;;;;;;;;;;21.60;99.90;;;;;;4933954;29;19926;-79
2021/03/31 01:56:19;;;;;;;;;;;21.50;99.90;;;;;;4936208;29;19953;-80
2021/03/31 01:58:47;;;;;;;;;;;21.40;99.90;;;;;;4930606;29;20432;-80
2021/03/31 02:01:23;;;;;;;;;;;21.20;99.90;;;;;;4936591;29;19911;-79
2021/03/31 02:03:52;;;;;;;;;;;21.00;99.90;;;;;;4936128;29;19911;-79
2021/03/31 02:06:19;;;;;;;;;;;20.90;99.90;;;;;;4930389;29;19920;-79
2021/03/31 02:08:47;;;;;;;;;;;21.00;99.90;;;;;;4916883;29;19962;-79
2021/03/31 02:11:15;;;;;;;;;;;21.00;99.90;;;;;;4936536;29;19923;-79
2021/03/31 02:13:42;;;;;;;;;;;21.10;99.90;;;;;;4936012;29;20379;-80
2021/03/31 02:16:09;;;;;;;;;;;21.00;99.90;;;;;;4918719;29;19923;-80
2021/03/31 02:18:37;;;;;;;;;;;21.00;99.90;;;;;;4936148;29;19966;-79
2021/03/31 02:21:04;;;;;;;;;;;21.00;99.90;;;;;;4937197;29;20013;-79
2021/03/31 02:23:34;;;;;;;;;;;21.10;99.90;;;;;;4934052;29;19918;-79
2021/03/31 02:26:02;;;;;;;;;;;21.30;99.90;;;;;;4933265;29;19922;-79
2021/03/31 02:28:30;;;;;;;;;;;21.40;99.70;;;;;;4934965;29;19918;-78
2021/03/31 02:30:58;;;;;;;;;;;21.40;98.70;;;;;;4934325;29;19917;-79
2021/03/31 02:33:26;;;;;;;;;;;21.30;99.90;;;;;;4933431;29;19931;-79
2021/03/31 02:35:52;;;;;;;;;;;21.30;99.70;;;;;;4933566;29;20014;-79
2021/03/31 02:38:19;;;;;;;;;;;21.20;99.30;;;;;;4932507;29;19966;-79
2021/03/31 02:40:47;;;;;;;;;;;21.20;99.80;;;;;;4936315;29;19918;-79
2021/03/31 02:43:15;;;;;;;;;;;21.20;98.90;;;;;;4934989;29;20392;-77
2021/03/31 02:45:44;;;;;;;;;;;21.20;98.50;;;;;;4935985;29;20346;-79
2021/03/31 02:48:13;;;;;;;;;;;21.20;99.20;;;;;;4936079;29;19915;-77
2021/03/31 02:50:41;;;;;;;;;;;21.20;99.60;;;;;;4935494;29;19911;-79
2021/03/31 02:53:08;;;;;;;;;;;21.30;99.20;;;;;;4935533;29;19919;-79
2021/03/31 02:55:37;;;;;;;;;;;21.30;98.50;;;;;;4935425;29;19915;-79
2021/03/31 02:58:06;;;;;;;;;;;21.30;98.40;;;;;;4936123;29;20282;-80
2021/03/31 03:00:33;;;;;;;;;;;21.30;98.20;;;;;;4935584;29;19915;-79
2021/03/31 03:03:02;;;;;;;;;;;21.20;97.80;;;;;;4935832;29;20249;-79
2021/03/31 03:05:29;;;;;;;;;;;21.20;97.70;;;;;;4934564;29;19941;-80
2021/03/31 03:07:57;;;;;;;;;;;21.20;97.20;;;;;;4934141;29;19919;-80
2021/03/31 03:10:23;;;;;;;;;;;21.30;96.30;;;;;;4935713;29;19921;-79
2021/03/31 03:12:55;;;;;;;;;;;21.30;96.10;;;;;;4935534;29;19938;-80
2021/03/31 03:15:24;;;;;;;;;;;21.30;96.70;;;;;;4935729;29;19918;-80
2021/03/31 03:17:53;;;;;;;;;;;21.30;96.60;;;;;;4935780;29;20005;-80
2021/03/31 03:20:20;;;;;;;;;;;21.40;96.20;;;;;;4942663;29;20444;-80
2021/03/31 03:22:48;;;;;;;;;;;21.50;96.00;;;;;;4937025;29;19922;-79
2021/03/31 03:25:16;;;;;;;;;;;21.60;95.30;;;;;;4933717;29;19962;-79
2021/03/31 03:27:43;;;;;;;;;;;21.50;96.70;;;;;;4936019;29;19915;-79
2021/03/31 03:30:12;;;;;;;;;;;21.60;97.00;;;;;;4931346;29;20218;-79
2021/03/31 03:32:42;;;;;;;;;;;21.70;97.70;;;;;;4927572;29;19923;-79
2021/03/31 03:35:13;;;;;;;;;;;21.70;96.00;;;;;;4932616;29;19934;-79
2021/03/31 03:37:40;;;;;;;;;;;21.80;95.70;;;;;;4932485;29;19934;-79
2021/03/31 03:40:08;;;;;;;;;;;21.70;95.10;;;;;;4940299;29;19911;-79
2021/03/31 03:42:34;;;;;;;;;;;21.80;94.00;;;;;;4937823;29;19903;-79
2021/03/31 03:45:03;;;;;;;;;;;21.70;94.90;;;;;;4937970;28;20025;-79
2021/03/31 03:47:30;;;;;;;;;;;21.60;93.90;;;;;;4950234;29;19930;-78
2021/03/31 03:49:57;;;;;;;;;;;21.70;92.90;;;;;;4947647;28;20018;-79
2021/03/31 03:52:24;;;;;;;;;;;21.70;93.10;;;;;;4935548;29;19937;-79
2021/03/31 03:54:52;;;;;;;;;;;21.60;92.30;;;;;;4921009;29;19923;-79
2021/03/31 03:57:25;;;;;;;;;;;21.60;92.60;;;;;;4939404;29;19926;-80
2021/03/31 03:59:53;;;;;;;;;;;21.70;94.00;;;;;;4938820;29;19911;-79
2021/03/31 04:02:20;;;;;;;;;;;21.70;93.80;;;;;;4939441;29;20001;-80
2021/03/31 04:04:47;;;;;;;;;;;21.70;93.00;;;;;;4937692;29;19985;-79
2021/03/31 04:07:14;;;;;;;;;;;21.70;92.80;;;;;;4936337;29;20343;-80
2021/03/31 04:09:41;;;;;;;;;;;21.70;93.40;;;;;;4936565;29;20376;-79
2021/03/31 04:12:09;;;;;;;;;;;21.70;92.70;;;;;;4937254;29;19919;-80
2021/03/31 04:14:40;;;;;;;;;;;21.70;91.80;;;;;;4946210;29;19961;-79
2021/03/31 04:17:15;;;;;;;;;;;21.80;92.90;;;;;;4959907;29;19907;-79
2021/03/31 04:19:43;;;;;;;;;;;21.90;93.10;;;;;;4939049;29;20389;-79
2021/03/31 04:22:10;;;;;;;;;;;22.00;93.20;;;;;;4937972;29;20283;-80
2021/03/31 04:24:37;;;;;;;;;;;21.90;93.20;;;;;;4939057;29;19922;-80
2021/03/31 04:27:04;;;;;;;;;;;21.80;92.50;;;;;;4939350;29;19911;-80
2021/03/31 04:29:32;;;;;;;;;;;21.80;93.20;;;;;;4937654;29;20366;-80
2021/03/31 04:31:59;;;;;;;;;;;21.80;92.80;;;;;;4937592;29;19919;-79
2021/03/31 04:34:27;;;;;;;;;;;21.80;93.40;;;;;;4938538;29;19929;-81
2021/03/31 04:36:53;;;;;;;;;;;21.70;93.00;;;;;;4937463;29;20289;-81
2021/03/31 04:39:22;;;;;;;;;;;21.60;92.70;;;;;;4938172;29;19918;-80
2021/03/31 04:41:49;;;;;;;;;;;21.70;92.70;;;;;;4938456;29;19914;-79
2021/03/31 04:44:16;;;;;;;;;;;21.70;93.50;;;;;;4933739;29;20319;-80
2021/03/31 04:46:42;;;;;;;;;;;21.80;93.60;;;;;;4938494;29;19966;-80
2021/03/31 04:49:09;;;;;;;;;;;21.80;93.00;;;;;;4938020;29;20009;-80
2021/03/31 04:51:36;;;;;;;;;;;21.70;93.60;;;;;;4938066;29;20329;-80
2021/03/31 04:54:03;;;;;;;;;;;21.90;94.00;;;;;;4920973;29;20009;-81
2021/03/31 04:56:30;;;;;;;;;;;21.80;92.50;;;;;;4937490;29;19922;-80
2021/03/31 04:58:57;;;;;;;;;;;21.90;93.20;;;;;;4938112;29;19915;-80
2021/03/31 05:01:23;;;;;;;;;;;21.90;93.80;;;;;;4925027;29;19922;-80
2021/03/31 05:03:50;;;;;;;;;;;21.90;92.90;;;;;;4938039;29;19911;-79
2021/03/31 05:06:18;;;;;;;;;;;21.90;92.20;;;;;;4936413;29;19954;-79
2021/03/31 05:08:44;;;;;;;;;;;21.90;92.70;;;;;;4936321;29;19915;-79
2021/03/31 05:11:11;;;;;;;;;;;22.00;92.80;;;;;;4937936;29;19911;-79
2021/03/31 05:13:38;;;;;;;;;;;21.90;93.20;;;;;;4938321;29;19931;-78
2021/03/31 05:16:05;;;;;;;;;;;21.90;93.30;;;;;;4938286;29;19911;-78
2021/03/31 05:18:31;;;;;;;;;;;21.80;92.70;;;;;;4937430;29;19922;-78
2021/03/31 05:20:58;;;;;;;;;;;21.80;92.20;;;;;;4937270;29;20077;-78
2021/03/31 05:23:25;;;;;;;;;;;21.70;93.20;;;;;;4937546;29;19956;-79
2021/03/31 05:25:51;;;;;;;;;;;21.60;92.40;;;;;;4937915;29;19950;-79
2021/03/31 05:28:18;;;;;;;;;;;21.60;93.00;;;;;;4937602;29;19918;-79
2021/03/31 05:30:45;;;;;;;;;;;21.60;93.20;;;;;;4937018;29;19921;-78
2021/03/31 05:33:11;;;;;;;;;;;21.50;93.00;;;;;;4937747;29;19974;-80
2021/03/31 05:35:38;;;;;;;;;;;21.60;92.90;;;;;;4936589;29;19997;-79
2021/03/31 05:38:04;;;;;;;;;;;21.60;92.70;;;;;;4935764;29;19923;-79
2021/03/31 05:40:34;;;;;;;;;;;21.70;92.30;;;;;;4935960;29;19930;-79
2021/03/31 05:43:01;;;;;;;;;;;21.60;91.80;;;;;;4937356;29;19918;-79
2021/03/31 05:45:28;;;;;;;;;;;21.60;92.10;;;;;;4936532;29;19922;-79
2021/03/31 05:47:55;;;;;;;;;;;21.60;91.90;;;;;;4937529;29;20309;-79
2021/03/31 05:50:22;;;;;;;;;;;21.60;92.50;;;;;;4937385;29;19914;-80
2021/03/31 05:52:49;;;;;;;;;;;21.60;92.10;;;;;;4935654;29;19922;-77
2021/03/31 05:55:16;;;;;;;;;;;21.50;92.30;;;;;;4937715;29;19915;-78
2021/03/31 05:57:45;;;;;;;;;;;21.50;91.40;;;;;;4932220;29;19925;-78
2021/03/31 06:00:17;;;;;;;;;;;21.50;91.60;;;;;;4947917;29;19938;-79
2021/03/31 06:02:44;;;;;;;;;;;21.50;90.80;;;;;;4938152;29;19911;-77
2021/03/31 06:05:12;;;;;;;;;;;21.50;91.00;;;;;;4937227;29;20438;-79
2021/03/31 06:07:43;;;;;;;;;;;21.40;91.20;;;;;;4936884;29;20090;-80
2021/03/31 06:10:13;;;;;;;;;;;21.30;91.20;;;;;;4934430;29;20391;-80
2021/03/31 06:12:40;;;;;;;;;;;21.40;91.30;;;;;;4934571;29;19915;-80
2021/03/31 06:15:21;;;;;;;;;;;21.40;91.50;;;;;;4936326;29;19922;-80
2021/03/31 06:18:01;;;;;;;;;;;21.40;92.00;;;;;;4935032;29;20411;-80
2021/03/31 06:20:38;;;;;;;;;;;21.30;92.00;;;;;;4936484;29;20299;-81
2021/03/31 06:23:19;;;;;;;;;;;21.30;91.80;;;;;;4936019;29;19962;-80
2021/03/31 06:25:54;;;;;;;;;;;21.30;91.60;;;;;;4936255;29;20053;-79
2021/03/31 06:28:30;;;;;;;;;;;21.20;90.90;;;;;;4933628;29;19915;-79
2021/03/31 06:31:11;;;;;;;;;;;21.20;91.00;;;;;;4936996;29;20389;-80
2021/03/31 06:33:38;;;;;;;;;;;21.20;90.30;;;;;;4935295;29;19949;-80
2021/03/31 06:36:06;;;;;;;;;;;21.30;90.80;;;;;;4938346;29;20087;-81
2021/03/31 06:38:33;;;;;;;;;;;21.20;88.20;;;;;;4935580;29;19923;-80
2021/03/31 06:41:34;;;;;;;;;;;21.10;88.40;;;;;;4918554;29;19971;-80
2021/03/31 06:44:27;;;;;;;;;;;21.10;86.70;;;;;;4949013;28;19906;-79
2021/03/31 06:47:09;;;;;;;;;;;21.00;87.10;;;;;;4937712;29;19926;-78
2021/03/31 06:49:37;;;;;;;;;;;21.00;88.50;;;;;;4921184;29;20022;-79
2021/03/31 06:52:05;;;;;;;;;;;21.00;89.60;;;;;;4926214;29;19919;-79
2021/03/31 06:54:41;;;;;;;;;;;21.00;90.40;;;;;;4921631;29;20327;-79
2021/03/31 06:57:07;;;;;;;;;;;21.00;90.60;;;;;;4929934;29;19977;-79
2021/03/31 06:59:34;;;;;;;;;;;21.00;91.00;;;;;;4920178;29;19915;-80
2021/03/31 07:02:03;;;;;;;;;;;21.00;90.20;;;;;;4933855;29;19931;-79
2021/03/31 07:04:30;;;;;;;;;;;20.90;90.60;;;;;;4941955;28;19907;-79
2021/03/31 07:07:02;;;;;;;;;;;21.00;91.40;;;;;;4944522;28;19919;-80
2021/03/31 07:09:29;;;;;;;;;;;20.90;92.00;;;;;;4916671;29;19968;-79
2021/03/31 07:11:55;;;;;;;;;;;20.90;92.80;;;;;;4928115;29;20001;-79
2021/03/31 07:14:22;;;;;;;;;;;20.80;93.30;;;;;;4934264;29;19919;-80
2021/03/31 07:16:52;;;;;;;;;;;20.80;93.30;;;;;;4933373;29;19958;-79
2021/03/31 07:19:19;;;;;;;;;;;20.70;93.20;;;;;;4915533;29;19919;-79
2021/03/31 07:21:45;;;;;;;;;;;20.70;93.80;;;;;;4921917;29;19911;-79
2021/03/31 07:24:14;;;;;;;;;;;20.60;94.20;;;;;;4922475;29;20317;-79
2021/03/31 07:26:42;;;;;;;;;;;20.60;94.90;;;;;;4934208;29;19998;-79
2021/03/31 07:29:09;;;;;;;;;;;20.60;94.40;;;;;;4948204;28;19942;-79
2021/03/31 07:31:54;;;;;;;;;;;20.60;94.60;;;;;;4951776;28;19923;-80
2021/03/31 07:34:28;;;;;;;;;;;20.50;94.70;;;;;;4933675;29;19959;-80
2021/03/31 07:36:55;;;;;;;;;;;20.50;95.00;;;;;;4925184;29;20001;-80
2021/03/31 07:39:25;;;;;;;;;;;20.50;95.50;;;;;;4934072;29;19911;-80
2021/03/31 07:41:53;;;;;;;;;;;20.40;95.80;;;;;;4934080;29;19922;-80
2021/03/31 07:44:24;;;;;;;;;;;20.40;96.20;;;;;;4933267;29;20399;-80
2021/03/31 07:46:52;;;;;;;;;;;20.40;96.50;;;;;;4933648;29;19915;-80
2021/03/31 07:49:19;;;;;;;;;;;20.30;96.50;;;;;;4933568;29;20330;-80
2021/03/31 07:51:55;;;;;;;;;;;20.30;96.70;;;;;;4934065;29;20360;-80
2021/03/31 07:54:22;;;;;;;;;;;20.30;97.00;;;;;;4932933;29;19986;-81
2021/03/31 07:56:48;;;;;;;;;;;20.30;97.40;;;;;;4932364;29;20010;-80
2021/03/31 07:59:16;;;;;;;;;;;20.30;97.50;;;;;;4932619;29;19925;-79
2021/03/31 08:01:52;;;;;;;;;;;20.30;97.90;;;;;;4934305;29;19911;-81
2021/03/31 08:04:20;;;;;;;;;;;20.20;98.00;;;;;;4935473;29;19915;-79
2021/03/31 08:06:50;;;;;;;;;;;20.20;98.10;;;;;;4934611;29;19911;-80
2021/03/31 08:09:20;;;;;;;;;;;20.10;98.20;;;;;;4916292;29;20388;-80
2021/03/31 08:11:46;;;;;;;;;;;20.10;98.60;;;;;;4933826;29;19911;-78
2021/03/31 08:14:14;;;;;;;;;;;20.10;98.10;;;;;;4933818;29;19919;-78
2021/03/31 08:16:46;;;;;;;;;;;20.10;98.50;;;;;;4934006;29;19911;-79
2021/03/31 08:19:16;;;;;;;;;;;20.10;98.40;;;;;;4933693;29;20401;-79
2021/03/31 08:21:44;;;;;;;;;;;20.10;97.90;;;;;;4917035;29;20404;-79
2021/03/31 08:24:11;;;;;;;;;;;20.10;97.90;;;;;;4935302;29;19937;-80
2021/03/31 08:26:41;;;;;;;;;;;20.10;97.70;;;;;;4934990;29;19981;-77
2021/03/31 08:29:20;;;;;;;;;;;20.10;97.90;;;;;;4934751;29;19911;-80
2021/03/31 08:31:48;;;;;;;;;;;20.10;98.10;;;;;;4935528;29;19911;-77
2021/03/31 08:34:16;;;;;;;;;;;20.00;98.30;;;;;;4934779;29;19962;-81
2021/03/31 08:36:43;;;;;;;;;;;20.00;98.30;;;;;;4934863;29;20005;-80
2021/03/31 08:39:11;;;;;;;;;;;19.90;98.60;;;;;;4935298;29;19925;-80
2021/03/31 08:41:39;;;;;;;;;;;19.90;98.80;;;;;;4938806;29;19911;-80
2021/03/31 08:44:12;;;;;;;;;;;19.90;98.60;;;;;;4938006;29;19943;-82
2021/03/31 08:46:40;;;;;;;;;;;19.80;98.80;;;;;;4921509;29;19919;-77
2021/03/31 08:49:07;;;;;;;;;;;19.80;98.90;;;;;;4938602;29;20452;-76
2021/03/31 08:51:40;;;;;;;;;;;19.80;99.20;;;;;;4938963;29;19961;-76
2021/03/31 08:54:06;;;;;;;;;;;19.70;99.40;;;;;;4938867;29;19923;-77
2021/03/31 08:56:33;;;;;;;;;;;19.70;99.60;;;;;;4939247;29;19918;-77
2021/03/31 08:59:00;;;;;;;;;;;19.70;99.80;;;;;;4938768;29;19910;-77
2021/03/31 09:01:31;;;;;;;;;;;19.70;99.90;;;;;;4938978;29;20403;-77
2021/03/31 09:04:20;;;;;;;;;;;19.70;99.90;;;;;;4935014;29;20452;-77
2021/03/31 09:06:47;;;;;;;;;;;19.70;99.90;;;;;;4938928;29;19918;-76
2021/03/31 09:09:14;;;;;;;;;;;19.70;99.90;;;;;;4938350;29;19930;-76
2021/03/31 09:11:40;;;;;;;;;;;19.70;99.90;;;;;;4938511;29;20277;-77
2021/03/31 09:14:16;;;;;;;;;;;19.70;99.90;;;;;;4938024;29;19926;-77
2021/03/31 09:16:52;;;;;;;;;;;19.70;99.90;;;;;;4938671;29;19911;-76
2021/03/31 09:19:19;;;;;;;;;;;19.60;99.90;;;;;;4921001;29;20054;-77
2021/03/31 09:21:46;;;;;;;;;;;19.60;99.90;;;;;;4937127;29;20249;-76
2021/03/31 09:24:15;;;;;;;;;;;19.70;99.90;;;;;;4937872;29;20255;-76
2021/03/31 09:26:43;;;;;;;;;;;19.70;99.90;;;;;;4937791;29;19966;-77
2021/03/31 09:29:16;;;;;;;;;;;19.70;99.90;;;;;;4937762;29;20365;-78
2021/03/31 09:31:45;;;;;;;;;;;19.70;99.90;;;;;;4938199;29;19910;-77
2021/03/31 09:34:12;;;;;;;;;;;19.70;99.90;;;;;;4937505;29;19926;-76
2021/03/31 09:36:38;;;;;;;;;;;19.60;99.90;;;;;;4937417;29;19933;-76
2021/03/31 09:39:06;;;;;;;;;;;19.60;99.90;;;;;;4937793;29;19915;-76
2021/03/31 09:41:34;;;;;;;;;;;19.60;99.90;;;;;;4937862;29;19918;-78
2021/03/31 09:44:01;;;;;;;;;;;19.50;99.90;;;;;;4937274;29;19993;-76
2021/03/31 09:46:29;;;;;;;;;;;19.60;99.90;;;;;;4937647;29;20309;-76
2021/03/31 09:48:56;;;;;;;;;;;19.60;99.90;;;;;;4937682;29;19910;-77
2021/03/31 09:51:23;;;;;;;;;;;19.60;99.90;;;;;;4936848;29;19918;-77
2021/03/31 09:53:50;;;;;;;;;;;19.60;99.90;;;;;;4936586;29;20025;-78
2021/03/31 09:56:17;;;;;;;;;;;19.60;99.90;;;;;;4936452;29;19914;-76
2021/03/31 09:58:46;;;;;;;;;;;19.60;99.90;;;;;;4934946;29;19937;-76
2021/03/31 10:01:14;;;;;;;;;;;19.60;99.90;;;;;;4936858;29;19915;-77
2021/03/31 10:03:42;;;;;;;;;;;19.60;99.90;;;;;;4935750;29;19998;-76
2021/03/31 10:06:34;;;;;;;;;;;19.60;99.90;;;;;;4934862;29;20413;-79
2021/03/31 10:09:03;;;;;;;;;;;19.60;99.90;;;;;;4932552;29;20326;-79
2021/03/31 10:11:30;;;;;;;;;;;19.60;99.90;;;;;;4936945;29;19915;-78
2021/03/31 10:13:57;;;;;;;;;;;19.60;99.90;;;;;;4935547;29;20381;-77
2021/03/31 10:16:32;;;;;;;;;;;19.60;99.90;;;;;;4936536;29;19923;-77
2021/03/31 10:18:58;;;;;;;;;;;19.70;99.90;;;;;;4936365;29;19922;-77
2021/03/31 10:21:32;;;;;;;;;;;19.70;99.90;;;;;;4920111;29;19915;-77
2021/03/31 10:23:59;;;;;;;;;;;19.60;99.90;;;;;;4936657;29;19974;-77
2021/03/31 10:26:26;;;;;;;;;;;19.60;99.90;;;;;;4936111;29;20005;-78
2021/03/31 10:28:54;;;;;;;;;;;19.60;99.90;;;;;;4936413;29;20293;-77
2021/03/31 10:31:23;;;;;;;;;;;19.60;99.90;;;;;;4935382;29;19970;-77
2021/03/31 10:33:51;;;;;;;;;;;19.50;99.90;;;;;;4933817;29;19926;-78
2021/03/31 10:36:48;;;;;;;;;;;19.50;99.90;;;;;;4925203;29;20552;-77
2021/03/31 10:49:56;;;;;;;;;;;19.40;99.90;;;;;;4937197;29;19935;-78
2021/03/31 10:52:34;;;;;;;;;;;19.40;99.90;;;;;;4936679;29;19962;-77
2021/03/31 10:55:02;;;;;;;;;;;19.40;99.90;;;;;;4934468;29;20377;-77
2021/03/31 10:57:29;;;;;;;;;;;19.40;99.90;;;;;;4935999;29;19915;-78
2021/03/31 10:59:55;;;;;;;;;;;19.40;99.90;;;;;;4936041;29;19946;-77
2021/03/31 11:02:22;;;;;;;;;;;19.40;99.90;;;;;;4935980;29;20258;-76
2021/03/31 11:04:49;;;;;;;;;;;19.30;99.90;;;;;;4934179;29;19920;-79
2021/03/31 11:07:15;;;;;;;;;;;19.20;99.90;;;;;;4934519;29;19930;-79
2021/03/31 11:09:43;;;;;;;;;;;18.80;99.90;;;;;;4933856;29;19926;-78
2021/03/31 11:12:10;;;;;;;;;;;18.60;99.90;;;;;;4936225;29;19921;-80
2021/03/31 11:14:37;;;;;;;;;;;18.40;99.90;;;;;;4934830;29;19934;-80
2021/03/31 11:17:07;;;;;;;;;;;18.30;99.90;;;;;;4933876;29;20246;-79
2021/03/31 11:19:52;;;;;;;;;;;18.30;99.90;;;;;;4933127;29;19921;-79
2021/03/31 11:27:48;;;;;;;;;;;18.20;99.90;;;;;;4936125;29;19922;-80
2021/03/31 11:30:15;;;;;;;;;;;18.10;99.90;;;;;;4935977;29;19934;-81
2021/03/31 11:32:41;;;;;;;;;;;18.20;99.90;;;;;;4935671;29;19911;-81
2021/03/31 11:35:08;;;;;;;;;;;18.20;99.90;;;;;;4934994;29;19941;-82
2021/03/31 11:37:35;;;;;;;;;;;18.30;99.90;;;;;;4935493;29;19956;-82
2021/03/31 11:40:03;;;;;;;;;;;18.20;99.90;;;;;;4934795;29;19969;-82
2021/03/31 11:42:29;;;;;;;;;;;18.20;99.90;;;;;;4935805;29;20388;-82
2021/03/31 11:44:56;;;;;;;;;;;18.20;99.90;;;;;;4935059;29;20559;-84
2021/03/31 11:47:23;;;;;;;;;;;18.10;99.90;;;;;;4933149;29;20231;-83
2021/03/31 11:49:49;;;;;;;;;;;18.10;99.90;;;;;;4935229;29;19921;-82
2021/03/31 11:52:16;;;;;;;;;;;18.10;99.90;;;;;;4934229;29;19919;-82
2021/03/31 11:54:43;;;;;;;;;;;18.00;99.90;;;;;;4935307;29;19938;-83
2021/03/31 11:57:10;;;;;;;;;;;18.00;99.90;;;;;;4935165;29;19947;-87
2021/03/31 11:59:36;;;;;;;;;;;18.00;99.90;;;;;;4935225;29;19930;-83
2021/03/31 12:02:03;;;;;;;;;;;17.90;99.90;;;;;;4935094;29;19933;-83
2021/03/31 12:04:30;;;;;;;;;;;17.90;99.90;;;;;;4934315;29;19915;-84
2021/03/31 12:06:56;;;;;;;;;;;17.90;99.90;;;;;;4934225;29;20005;-83
2021/03/31 12:09:23;;;;;;;;;;;17.90;99.90;;;;;;4934278;29;19915;-83
2021/03/31 12:11:53;;;;;;;;;;;17.80;99.90;;;;;;4935507;29;19914;-82
2021/03/31 12:14:20;;;;;;;;;;;17.80;99.90;;;;;;4935107;29;19927;-82
2021/03/31 12:16:47;;;;;;;;;;;17.70;99.90;;;;;;4938415;29;19946;-82
2021/03/31 12:19:14;;;;;;;;;;;17.60;99.90;;;;;;4937908;29;19918;-82
2021/03/31 12:21:41;;;;;;;;;;;17.60;99.90;;;;;;4932923;29;19937;-82
2021/03/31 12:24:08;;;;;;;;;;;17.50;99.90;;;;;;4938121;29;20010;-82
2021/03/31 12:26:34;;;;;;;;;;;17.50;99.90;;;;;;4937724;29;19938;-82
2021/03/31 12:29:01;;;;;;;;;;;17.50;99.90;;;;;;4938121;29;19915;-82
2021/03/31 12:31:28;;;;;;;;;;;17.40;99.90;;;;;;4938458;29;19922;-81
2021/03/31 12:33:54;;;;;;;;;;;17.40;99.90;;;;;;4938764;29;19915;-82
2021/03/31 12:36:21;;;;;;;;;;;17.30;99.90;;;;;;4938082;29;20420;-82
2021/03/31 12:38:47;;;;;;;;;;;17.30;99.90;;;;;;4938271;29;19919;-78
2021/03/31 12:41:14;;;;;;;;;;;17.30;99.90;;;;;;4937758;29;19926;-80
2021/03/31 12:43:41;;;;;;;;;;;17.30;99.90;;;;;;4935725;29;20025;-81
2021/03/31 12:46:07;;;;;;;;;;;17.20;99.90;;;;;;4931879;29;19926;-78
2021/03/31 12:48:34;;;;;;;;;;;17.20;99.90;;;;;;4937051;29;19983;-80
2021/03/31 12:51:07;;;;;;;;;;;17.20;99.90;;;;;;4938382;29;19914;-79
2021/03/31 12:53:38;;;;;;;;;;;17.20;99.90;;;;;;4936286;29;19929;-79
2021/03/31 12:56:05;;;;;;;;;;;17.10;99.90;;;;;;4935942;29;19922;-79
2021/03/31 12:58:37;;;;;;;;;;;17.10;99.90;;;;;;4918394;29;20380;-79
2021/03/31 13:01:11;;;;;;;;;;;17.20;99.90;;;;;;4936196;29;19919;-78
2021/03/31 13:03:37;;;;;;;;;;;17.10;99.90;;;;;;4936548;29;19922;-78
2021/03/31 13:06:04;;;;;;;;;;;17.00;99.90;;;;;;4934536;29;19915;-79
2021/03/31 13:08:31;;;;;;;;;;;17.00;99.90;;;;;;4937788;29;19915;-79
2021/03/31 13:10:58;;;;;;;;;;;17.00;99.90;;;;;;4936846;29;19921;-78
2021/03/31 13:16:03;;;;;;;;;;;17.00;99.90;;;;;;4937740;29;19918;-79
2021/03/31 13:35:06;;;;;;;;;;;17.10;99.90;;;;;;4922275;29;19927;-80
2021/03/31 13:40:20;;;;;;;;;;;17.00;99.90;;;;;;4917367;29;19911;-78
2021/03/31 13:42:47;;;;;;;;;;;17.00;99.90;;;;;;4937957;29;19914;-78
2021/03/31 13:45:14;;;;;;;;;;;17.00;99.90;;;;;;4937828;29;19911;-81
2021/03/31 13:47:48;;;;;;;;;;;17.00;99.90;;;;;;4937844;29;19911;-78
2021/03/31 13:50:15;;;;;;;;;;;17.00;99.90;;;;;;4937862;29;20582;-79
2021/03/31 13:52:45;;;;;;;;;;;17.00;99.90;;;;;;4937675;29;19926;-79
2021/03/31 13:55:15;;;;;;;;;;;17.00;99.90;;;;;;4937149;29;19927;-79
2021/03/31 13:57:43;;;;;;;;;;;17.00;99.90;;;;;;4937522;29;19925;-78
2021/03/31 14:00:11;;;;;;;;;;;17.10;99.90;;;;;;4937444;29;20329;-79
2021/03/31 14:02:39;;;;;;;;;;;17.00;99.90;;;;;;4937457;29;19911;-79
2021/03/31 14:05:06;;;;;;;;;;;17.00;99.90;;;;;;4937251;29;19914;-79
2021/03/31 14:07:32;;;;;;;;;;;17.10;99.90;;;;;;4937708;29;19911;-79
2021/03/31 14:09:59;;;;;;;;;;;17.10;99.90;;;;;;4937365;29;20009;-79
2021/03/31 14:12:29;;;;;;;;;;;17.10;99.90;;;;;;4936302;29;20333;-78
2021/03/31 14:14:56;;;;;;;;;;;17.10;99.90;;;;;;4937099;29;19930;-79
2021/03/31 14:17:24;;;;;;;;;;;17.10;99.90;;;;;;4937290;29;19966;-79
2021/03/31 14:19:57;;;;;;;;;;;17.10;99.90;;;;;;4937329;29;19910;-79
2021/03/31 14:22:27;;;;;;;;;;;17.00;99.90;;;;;;4937263;29;19915;-80
2021/03/31 14:24:55;;;;;;;;;;;17.00;99.90;;;;;;4937086;29;20393;-78
2021/03/31 14:27:22;;;;;;;;;;;17.00;99.90;;;;;;4937363;29;19917;-79
2021/03/31 14:29:49;;;;;;;;;;;16.90;99.90;;;;;;4937117;29;19915;-80
2021/03/31 14:32:17;;;;;;;;;;;16.90;99.90;;;;;;4937213;29;19922;-79
2021/03/31 14:34:44;;;;;;;;;;;16.90;99.90;;;;;;4936771;29;19923;-82
2021/03/31 14:37:12;;;;;;;;;;;16.70;99.90;;;;;;4936906;29;19922;-78
2021/03/31 14:39:39;;;;;;;;;;;16.70;99.90;;;;;;4936995;29;19915;-78
2021/03/31 14:42:06;;;;;;;;;;;16.60;99.90;;;;;;4936663;29;19910;-82
2021/03/31 14:44:33;;;;;;;;;;;16.60;99.90;;;;;;4936903;29;19911;-79
2021/03/31 14:47:00;;;;;;;;;;;16.50;99.90;;;;;;4936816;29;19946;-79
2021/03/31 14:49:27;;;;;;;;;;;16.50;99.90;;;;;;4936427;29;19914;-80
2021/03/31 14:59:51;;;;;;;;;;;16.40;99.90;;;;;;4936234;29;20006;-78
2021/03/31 15:02:18;;;;;;;;;;;16.20;99.90;;;;;;4936515;29;19915;-78
2021/03/31 15:04:45;;;;;;;;;;;16.20;99.90;;;;;;4936258;29;19954;-79
2021/03/31 15:07:12;;;;;;;;;;;16.30;99.90;;;;;;4936530;29;20350;-78
2021/03/31 15:09:39;;;;;;;;;;;16.30;99.90;;;;;;4936541;29;19921;-78
2021/03/31 15:12:06;;;;;;;;;;;16.30;99.90;;;;;;4936204;29;19958;-80